sensor_id;sensor_type;location;lat;lon;timestamp;P1;durP1;ratioP1;P2;durP2;ratioP2
8596;SDS011;4336;49.310;8.646;2024-01-16T00:00:07;23.53;;;17.50;;
8596;SDS011;4336;49.310;8.646;2024-01-16T00:02:34;24.20;;;15.50;;
8596;SDS011;4336;49.310;8.646;2024-01-16T00:05:00;20.73;;;16.63;;
8596;SDS011;4336;49.310;8.646;2024-01-16T00:07:26;20.23;;;15.77;;
8596;SDS011;4336;49.310;8.646;2024-01-16T00:09:52;21.57;;;15.57;;
8596;SDS011;4336;49.310;8.646;2024-01-16T00:12:19;24.10;;;17.87;;
8596;SDS011;4336;49.310;8.646;2024-01-16T00:14:45;23.43;;;17.30;;
8596;SDS011;4336;49.310;8.646;2024-01-16T00:17:11;23.97;;;17.40;;
8596;SDS011;4336;49.310;8.646;2024-01-16T00:19:37;22.83;;;18.13;;
8596;SDS011;4336;49.310;8.646;2024-01-16T00:22:03;21.73;;;16.37;;
8596;SDS011;4336;49.310;8.646;2024-01-16T00:24:30;20.03;;;15.10;;
8596;SDS011;4336;49.310;8.646;2024-01-16T00:26:56;21.83;;;17.03;;
8596;SDS011;4336;49.310;8.646;2024-01-16T00:29:22;23.20;;;15.60;;
8596;SDS011;4336;49.310;8.646;2024-01-16T00:31:49;20.20;;;15.20;;
8596;SDS011;4336;49.310;8.646;2024-01-16T00:34:15;23.60;;;17.40;;
8596;SDS011;4336;49.310;8.646;2024-01-16T00:36:41;24.50;;;16.03;;
8596;SDS011;4336;49.310;8.646;2024-01-16T00:39:07;16.97;;;13.83;;
8596;SDS011;4336;49.310;8.646;2024-01-16T00:41:33;17.93;;;14.23;;
8596;SDS011;4336;49.310;8.646;2024-01-16T00:43:59;21.30;;;15.27;;
8596;SDS011;4336;49.310;8.646;2024-01-16T00:46:25;19.80;;;15.03;;
8596;SDS011;4336;49.310;8.646;2024-01-16T00:48:51;18.93;;;15.70;;
8596;SDS011;4336;49.310;8.646;2024-01-16T00:51:17;21.53;;;14.40;;
8596;SDS011;4336;49.310;8.646;2024-01-16T00:53:44;19.27;;;14.60;;
8596;SDS011;4336;49.310;8.646;2024-01-16T00:56:10;20.93;;;15.83;;
8596;SDS011;4336;49.310;8.646;2024-01-16T00:58:37;19.27;;;14.50;;
8596;SDS011;4336;49.310;8.646;2024-01-16T01:01:03;23.30;;;15.23;;
8596;SDS011;4336;49.310;8.646;2024-01-16T01:03:29;19.13;;;15.43;;
8596;SDS011;4336;49.310;8.646;2024-01-16T01:05:55;19.40;;;14.07;;
8596;SDS011;4336;49.310;8.646;2024-01-16T01:08:22;17.00;;;14.23;;
8596;SDS011;4336;49.310;8.646;2024-01-16T01:10:48;18.67;;;14.93;;
8596;SDS011;4336;49.310;8.646;2024-01-16T01:13:14;23.40;;;16.50;;
8596;SDS011;4336;49.310;8.646;2024-01-16T01:15:40;19.70;;;15.80;;
8596;SDS011;4336;49.310;8.646;2024-01-16T01:18:06;20.90;;;15.60;;
8596;SDS011;4336;49.310;8.646;2024-01-16T01:20:32;20.43;;;15.43;;
8596;SDS011;4336;49.310;8.646;2024-01-16T01:22:58;23.20;;;14.83;;
8596;SDS011;4336;49.310;8.646;2024-01-16T01:25:25;26.47;;;16.30;;
8596;SDS011;4336;49.310;8.646;2024-01-16T01:27:51;20.23;;;16.13;;
8596;SDS011;4336;49.310;8.646;2024-01-16T01:30:17;20.67;;;15.43;;
8596;SDS011;4336;49.310;8.646;2024-01-16T01:32:44;18.03;;;14.00;;
8596;SDS011;4336;49.310;8.646;2024-01-16T01:35:10;21.07;;;15.27;;
8596;SDS011;4336;49.310;8.646;2024-01-16T01:37:39;20.30;;;15.33;;
8596;SDS011;4336;49.310;8.646;2024-01-16T01:40:05;19.47;;;14.83;;
8596;SDS011;4336;49.310;8.646;2024-01-16T01:42:32;17.97;;;15.03;;
8596;SDS011;4336;49.310;8.646;2024-01-16T01:44:58;21.20;;;15.70;;
8596;SDS011;4336;49.310;8.646;2024-01-16T01:47:24;17.30;;;15.07;;
8596;SDS011;4336;49.310;8.646;2024-01-16T01:49:50;20.57;;;15.33;;
8596;SDS011;4336;49.310;8.646;2024-01-16T01:52:17;19.30;;;14.50;;
8596;SDS011;4336;49.310;8.646;2024-01-16T01:54:43;20.20;;;14.47;;
8596;SDS011;4336;49.310;8.646;2024-01-16T01:57:10;18.00;;;14.57;;
8596;SDS011;4336;49.310;8.646;2024-01-16T01:59:36;19.00;;;15.20;;
8596;SDS011;4336;49.310;8.646;2024-01-16T02:02:03;22.60;;;15.63;;
8596;SDS011;4336;49.310;8.646;2024-01-16T02:04:30;24.40;;;16.07;;
8596;SDS011;4336;49.310;8.646;2024-01-16T02:06:57;25.10;;;16.00;;
8596;SDS011;4336;49.310;8.646;2024-01-16T02:09:24;19.53;;;13.77;;
8596;SDS011;4336;49.310;8.646;2024-01-16T02:11:50;16.80;;;14.80;;
8596;SDS011;4336;49.310;8.646;2024-01-16T02:14:16;18.70;;;15.23;;
8596;SDS011;4336;49.310;8.646;2024-01-16T02:16:42;20.23;;;15.47;;
8596;SDS011;4336;49.310;8.646;2024-01-16T02:19:12;19.00;;;13.73;;
8596;SDS011;4336;49.310;8.646;2024-01-16T02:21:48;19.90;;;15.17;;
8596;SDS011;4336;49.310;8.646;2024-01-16T02:24:14;20.37;;;15.93;;
8596;SDS011;4336;49.310;8.646;2024-01-16T02:26:42;17.57;;;14.10;;
8596;SDS011;4336;49.310;8.646;2024-01-16T02:29:08;18.30;;;15.00;;
8596;SDS011;4336;49.310;8.646;2024-01-16T02:31:34;18.83;;;15.63;;
8596;SDS011;4336;49.310;8.646;2024-01-16T02:34:01;18.93;;;15.27;;
8596;SDS011;4336;49.310;8.646;2024-01-16T02:36:29;19.70;;;15.33;;
8596;SDS011;4336;49.310;8.646;2024-01-16T02:38:55;23.03;;;16.33;;
8596;SDS011;4336;49.310;8.646;2024-01-16T02:41:21;20.67;;;15.57;;
8596;SDS011;4336;49.310;8.646;2024-01-16T02:43:47;19.47;;;15.80;;
8596;SDS011;4336;49.310;8.646;2024-01-16T02:46:14;22.23;;;14.07;;
8596;SDS011;4336;49.310;8.646;2024-01-16T02:48:40;18.53;;;14.80;;
8596;SDS011;4336;49.310;8.646;2024-01-16T02:51:07;21.27;;;15.13;;
8596;SDS011;4336;49.310;8.646;2024-01-16T02:53:34;19.70;;;15.30;;
8596;SDS011;4336;49.310;8.646;2024-01-16T02:56:00;19.17;;;15.73;;
8596;SDS011;4336;49.310;8.646;2024-01-16T02:58:26;21.50;;;15.67;;
8596;SDS011;4336;49.310;8.646;2024-01-16T03:00:53;20.37;;;14.63;;
8596;SDS011;4336;49.310;8.646;2024-01-16T03:03:19;19.73;;;15.00;;
8596;SDS011;4336;49.310;8.646;2024-01-16T03:05:45;20.03;;;15.27;;
8596;SDS011;4336;49.310;8.646;2024-01-16T03:08:12;22.17;;;14.83;;
8596;SDS011;4336;49.310;8.646;2024-01-16T03:10:38;20.80;;;14.70;;
8596;SDS011;4336;49.310;8.646;2024-01-16T03:13:04;19.20;;;16.03;;
8596;SDS011;4336;49.310;8.646;2024-01-16T03:15:30;20.27;;;15.63;;
8596;SDS011;4336;49.310;8.646;2024-01-16T03:17:57;19.47;;;15.60;;
8596;SDS011;4336;49.310;8.646;2024-01-16T03:20:23;21.00;;;15.07;;
8596;SDS011;4336;49.310;8.646;2024-01-16T03:22:49;22.77;;;15.47;;
8596;SDS011;4336;49.310;8.646;2024-01-16T03:25:16;19.83;;;15.83;;
8596;SDS011;4336;49.310;8.646;2024-01-16T03:27:42;18.10;;;14.90;;
8596;SDS011;4336;49.310;8.646;2024-01-16T03:30:09;20.50;;;15.23;;
8596;SDS011;4336;49.310;8.646;2024-01-16T03:32:35;20.80;;;15.43;;
8596;SDS011;4336;49.310;8.646;2024-01-16T03:35:02;20.37;;;15.80;;
8596;SDS011;4336;49.310;8.646;2024-01-16T03:37:29;18.63;;;14.60;;
8596;SDS011;4336;49.310;8.646;2024-01-16T03:39:55;21.20;;;15.83;;
8596;SDS011;4336;49.310;8.646;2024-01-16T03:42:22;20.63;;;15.73;;
8596;SDS011;4336;49.310;8.646;2024-01-16T03:44:48;20.90;;;16.33;;
8596;SDS011;4336;49.310;8.646;2024-01-16T03:47:15;18.43;;;14.50;;
8596;SDS011;4336;49.310;8.646;2024-01-16T03:49:41;23.43;;;15.40;;
8596;SDS011;4336;49.310;8.646;2024-01-16T03:52:07;18.77;;;14.97;;
8596;SDS011;4336;49.310;8.646;2024-01-16T03:54:33;21.77;;;15.30;;
8596;SDS011;4336;49.310;8.646;2024-01-16T03:56:59;24.97;;;16.30;;
8596;SDS011;4336;49.310;8.646;2024-01-16T03:59:25;21.27;;;15.07;;
8596;SDS011;4336;49.310;8.646;2024-01-16T04:01:51;20.33;;;15.30;;
8596;SDS011;4336;49.310;8.646;2024-01-16T04:04:17;18.13;;;14.13;;
8596;SDS011;4336;49.310;8.646;2024-01-16T04:06:44;22.37;;;16.30;;
8596;SDS011;4336;49.310;8.646;2024-01-16T04:09:10;21.43;;;15.50;;
8596;SDS011;4336;49.310;8.646;2024-01-16T04:11:36;20.23;;;15.80;;
8596;SDS011;4336;49.310;8.646;2024-01-16T04:14:02;23.47;;;15.60;;
8596;SDS011;4336;49.310;8.646;2024-01-16T04:16:28;22.67;;;15.53;;
8596;SDS011;4336;49.310;8.646;2024-01-16T04:18:54;20.20;;;14.77;;
8596;SDS011;4336;49.310;8.646;2024-01-16T04:21:21;15.17;;;12.33;;
8596;SDS011;4336;49.310;8.646;2024-01-16T04:23:47;21.20;;;14.63;;
8596;SDS011;4336;49.310;8.646;2024-01-16T04:26:13;20.27;;;14.80;;
8596;SDS011;4336;49.310;8.646;2024-01-16T04:28:39;17.57;;;14.97;;
8596;SDS011;4336;49.310;8.646;2024-01-16T04:31:05;20.07;;;15.63;;
8596;SDS011;4336;49.310;8.646;2024-01-16T04:33:31;22.10;;;15.53;;
8596;SDS011;4336;49.310;8.646;2024-01-16T04:35:58;17.73;;;13.50;;
8596;SDS011;4336;49.310;8.646;2024-01-16T04:38:24;24.70;;;15.60;;
8596;SDS011;4336;49.310;8.646;2024-01-16T04:40:50;22.50;;;16.00;;
8596;SDS011;4336;49.310;8.646;2024-01-16T04:43:16;22.60;;;16.10;;
8596;SDS011;4336;49.310;8.646;2024-01-16T04:45:42;26.37;;;16.20;;
8596;SDS011;4336;49.310;8.646;2024-01-16T04:48:08;23.43;;;16.10;;
8596;SDS011;4336;49.310;8.646;2024-01-16T04:50:34;19.90;;;15.40;;
8596;SDS011;4336;49.310;8.646;2024-01-16T04:53:01;21.43;;;15.43;;
8596;SDS011;4336;49.310;8.646;2024-01-16T04:55:30;21.57;;;16.00;;
8596;SDS011;4336;49.310;8.646;2024-01-16T04:57:56;21.70;;;16.03;;
8596;SDS011;4336;49.310;8.646;2024-01-16T05:00:23;22.77;;;14.37;;
8596;SDS011;4336;49.310;8.646;2024-01-16T05:02:49;21.10;;;16.80;;
8596;SDS011;4336;49.310;8.646;2024-01-16T05:05:16;25.97;;;16.37;;
8596;SDS011;4336;49.310;8.646;2024-01-16T05:07:42;25.63;;;16.00;;
8596;SDS011;4336;49.310;8.646;2024-01-16T05:10:12;21.23;;;15.27;;
8596;SDS011;4336;49.310;8.646;2024-01-16T05:12:38;24.30;;;16.10;;
8596;SDS011;4336;49.310;8.646;2024-01-16T05:15:05;19.87;;;16.17;;
8596;SDS011;4336;49.310;8.646;2024-01-16T05:17:32;18.23;;;15.43;;
8596;SDS011;4336;49.310;8.646;2024-01-16T05:19:58;27.30;;;15.63;;
8596;SDS011;4336;49.310;8.646;2024-01-16T05:22:24;21.17;;;15.60;;
8596;SDS011;4336;49.310;8.646;2024-01-16T05:24:50;20.83;;;15.77;;
8596;SDS011;4336;49.310;8.646;2024-01-16T05:27:17;20.10;;;16.27;;
8596;SDS011;4336;49.310;8.646;2024-01-16T05:29:43;20.50;;;15.80;;
8596;SDS011;4336;49.310;8.646;2024-01-16T05:32:09;25.07;;;17.30;;
8596;SDS011;4336;49.310;8.646;2024-01-16T05:34:35;26.03;;;18.23;;
8596;SDS011;4336;49.310;8.646;2024-01-16T05:37:01;23.77;;;17.23;;
8596;SDS011;4336;49.310;8.646;2024-01-16T05:39:28;24.47;;;16.47;;
8596;SDS011;4336;49.310;8.646;2024-01-16T05:41:54;25.73;;;18.20;;
8596;SDS011;4336;49.310;8.646;2024-01-16T05:44:20;26.07;;;17.60;;
8596;SDS011;4336;49.310;8.646;2024-01-16T05:46:46;26.33;;;18.37;;
8596;SDS011;4336;49.310;8.646;2024-01-16T05:49:12;28.47;;;18.53;;
8596;SDS011;4336;49.310;8.646;2024-01-16T05:51:38;26.47;;;18.67;;
8596;SDS011;4336;49.310;8.646;2024-01-16T05:54:04;28.47;;;19.50;;
8596;SDS011;4336;49.310;8.646;2024-01-16T05:56:31;33.43;;;22.10;;
8596;SDS011;4336;49.310;8.646;2024-01-16T05:58:59;30.50;;;22.60;;
8596;SDS011;4336;49.310;8.646;2024-01-16T06:01:25;23.23;;;18.50;;
8596;SDS011;4336;49.310;8.646;2024-01-16T06:03:52;21.43;;;16.33;;
8596;SDS011;4336;49.310;8.646;2024-01-16T06:06:18;21.43;;;15.50;;
8596;SDS011;4336;49.310;8.646;2024-01-16T06:08:44;20.57;;;15.30;;
8596;SDS011;4336;49.310;8.646;2024-01-16T06:11:11;23.17;;;16.60;;
8596;SDS011;4336;49.310;8.646;2024-01-16T06:13:38;19.60;;;16.03;;
8596;SDS011;4336;49.310;8.646;2024-01-16T06:16:07;26.23;;;17.17;;
8596;SDS011;4336;49.310;8.646;2024-01-16T06:18:34;29.97;;;18.10;;
8596;SDS011;4336;49.310;8.646;2024-01-16T06:21:01;21.30;;;16.43;;
8596;SDS011;4336;49.310;8.646;2024-01-16T06:23:27;23.83;;;16.60;;
8596;SDS011;4336;49.310;8.646;2024-01-16T06:25:53;22.07;;;16.80;;
8596;SDS011;4336;49.310;8.646;2024-01-16T06:28:19;21.17;;;16.30;;
8596;SDS011;4336;49.310;8.646;2024-01-16T06:30:45;26.00;;;17.37;;
8596;SDS011;4336;49.310;8.646;2024-01-16T06:33:11;26.03;;;17.60;;
8596;SDS011;4336;49.310;8.646;2024-01-16T06:35:37;22.03;;;16.00;;
8596;SDS011;4336;49.310;8.646;2024-01-16T06:38:05;27.97;;;17.60;;
8596;SDS011;4336;49.310;8.646;2024-01-16T06:40:31;47.70;;;24.80;;
8596;SDS011;4336;49.310;8.646;2024-01-16T06:42:57;47.87;;;23.70;;
8596;SDS011;4336;49.310;8.646;2024-01-16T06:45:23;37.73;;;21.67;;
8596;SDS011;4336;49.310;8.646;2024-01-16T06:47:51;26.03;;;18.50;;
8596;SDS011;4336;49.310;8.646;2024-01-16T06:50:17;28.57;;;17.73;;
8596;SDS011;4336;49.310;8.646;2024-01-16T06:52:44;23.33;;;17.57;;
8596;SDS011;4336;49.310;8.646;2024-01-16T06:55:10;24.27;;;18.80;;
8596;SDS011;4336;49.310;8.646;2024-01-16T06:57:36;26.07;;;17.57;;
8596;SDS011;4336;49.310;8.646;2024-01-16T07:00:03;25.23;;;17.37;;
8596;SDS011;4336;49.310;8.646;2024-01-16T07:02:32;25.30;;;18.40;;
8596;SDS011;4336;49.310;8.646;2024-01-16T07:04:58;26.77;;;18.40;;
8596;SDS011;4336;49.310;8.646;2024-01-16T07:07:25;40.17;;;21.50;;
8596;SDS011;4336;49.310;8.646;2024-01-16T07:09:51;37.07;;;21.13;;
8596;SDS011;4336;49.310;8.646;2024-01-16T07:12:17;28.37;;;16.90;;
8596;SDS011;4336;49.310;8.646;2024-01-16T07:14:44;25.97;;;17.57;;
8596;SDS011;4336;49.310;8.646;2024-01-16T07:17:10;24.80;;;17.80;;
8596;SDS011;4336;49.310;8.646;2024-01-16T07:19:36;28.60;;;20.83;;
8596;SDS011;4336;49.310;8.646;2024-01-16T07:22:02;27.87;;;20.00;;
8596;SDS011;4336;49.310;8.646;2024-01-16T07:24:28;24.23;;;18.90;;
8596;SDS011;4336;49.310;8.646;2024-01-16T07:26:54;24.60;;;18.57;;
8596;SDS011;4336;49.310;8.646;2024-01-16T07:29:20;25.83;;;18.27;;
8596;SDS011;4336;49.310;8.646;2024-01-16T07:31:46;22.83;;;17.17;;
8596;SDS011;4336;49.310;8.646;2024-01-16T07:34:13;25.73;;;15.73;;
8596;SDS011;4336;49.310;8.646;2024-01-16T07:36:45;25.73;;;17.90;;
8596;SDS011;4336;49.310;8.646;2024-01-16T07:39:11;34.07;;;18.37;;
8596;SDS011;4336;49.310;8.646;2024-01-16T07:41:37;22.97;;;16.67;;
8596;SDS011;4336;49.310;8.646;2024-01-16T07:44:03;27.97;;;17.70;;
8596;SDS011;4336;49.310;8.646;2024-01-16T07:46:29;29.27;;;19.17;;
8596;SDS011;4336;49.310;8.646;2024-01-16T07:48:55;30.47;;;19.70;;
8596;SDS011;4336;49.310;8.646;2024-01-16T07:51:21;28.30;;;20.03;;
8596;SDS011;4336;49.310;8.646;2024-01-16T07:53:47;30.70;;;20.23;;
8596;SDS011;4336;49.310;8.646;2024-01-16T07:56:15;30.43;;;19.67;;
8596;SDS011;4336;49.310;8.646;2024-01-16T07:58:41;29.60;;;19.47;;
8596;SDS011;4336;49.310;8.646;2024-01-16T08:01:07;27.40;;;19.07;;
8596;SDS011;4336;49.310;8.646;2024-01-16T08:03:33;28.57;;;19.33;;
8596;SDS011;4336;49.310;8.646;2024-01-16T08:06:00;27.60;;;19.13;;
8596;SDS011;4336;49.310;8.646;2024-01-16T08:08:26;30.30;;;19.00;;
8596;SDS011;4336;49.310;8.646;2024-01-16T08:10:53;29.63;;;19.93;;
8596;SDS011;4336;49.310;8.646;2024-01-16T08:13:20;29.97;;;20.07;;
8596;SDS011;4336;49.310;8.646;2024-01-16T08:15:46;26.87;;;19.70;;
8596;SDS011;4336;49.310;8.646;2024-01-16T08:18:13;27.27;;;19.17;;
8596;SDS011;4336;49.310;8.646;2024-01-16T08:20:40;30.30;;;20.10;;
8596;SDS011;4336;49.310;8.646;2024-01-16T08:23:06;28.17;;;19.20;;
8596;SDS011;4336;49.310;8.646;2024-01-16T08:25:33;26.23;;;17.50;;
8596;SDS011;4336;49.310;8.646;2024-01-16T08:27:59;28.00;;;18.80;;
8596;SDS011;4336;49.310;8.646;2024-01-16T08:30:26;25.33;;;18.23;;
8596;SDS011;4336;49.310;8.646;2024-01-16T08:32:52;28.90;;;20.20;;
8596;SDS011;4336;49.310;8.646;2024-01-16T08:35:18;29.60;;;20.13;;
8596;SDS011;4336;49.310;8.646;2024-01-16T08:37:44;26.63;;;19.70;;
8596;SDS011;4336;49.310;8.646;2024-01-16T08:40:10;29.37;;;19.53;;
8596;SDS011;4336;49.310;8.646;2024-01-16T08:42:36;28.20;;;19.33;;
8596;SDS011;4336;49.310;8.646;2024-01-16T08:45:03;27.27;;;19.00;;
8596;SDS011;4336;49.310;8.646;2024-01-16T08:47:30;25.50;;;18.73;;
8596;SDS011;4336;49.310;8.646;2024-01-16T08:49:56;25.40;;;18.63;;
8596;SDS011;4336;49.310;8.646;2024-01-16T08:52:23;24.83;;;18.17;;
8596;SDS011;4336;49.310;8.646;2024-01-16T08:54:49;23.37;;;17.63;;
8596;SDS011;4336;49.310;8.646;2024-01-16T08:57:15;27.70;;;18.03;;
8596;SDS011;4336;49.310;8.646;2024-01-16T08:59:41;26.97;;;19.17;;
8596;SDS011;4336;49.310;8.646;2024-01-16T09:02:07;23.67;;;16.23;;
8596;SDS011;4336;49.310;8.646;2024-01-16T09:04:34;24.53;;;18.13;;
8596;SDS011;4336;49.310;8.646;2024-01-16T09:07:00;27.97;;;19.53;;
8596;SDS011;4336;49.310;8.646;2024-01-16T09:09:29;29.47;;;18.53;;
8596;SDS011;4336;49.310;8.646;2024-01-16T09:11:55;26.87;;;19.67;;
8596;SDS011;4336;49.310;8.646;2024-01-16T09:14:23;29.00;;;19.23;;
8596;SDS011;4336;49.310;8.646;2024-01-16T09:16:49;27.20;;;19.17;;
8596;SDS011;4336;49.310;8.646;2024-01-16T09:19:16;28.00;;;18.40;;
8596;SDS011;4336;49.310;8.646;2024-01-16T09:21:42;26.93;;;19.90;;
8596;SDS011;4336;49.310;8.646;2024-01-16T09:24:08;31.10;;;19.80;;
8596;SDS011;4336;49.310;8.646;2024-01-16T09:26:34;29.13;;;19.93;;
8596;SDS011;4336;49.310;8.646;2024-01-16T09:29:01;22.43;;;17.97;;
8596;SDS011;4336;49.310;8.646;2024-01-16T09:31:27;29.20;;;19.43;;
8596;SDS011;4336;49.310;8.646;2024-01-16T09:33:53;28.27;;;19.37;;
8596;SDS011;4336;49.310;8.646;2024-01-16T09:36:19;29.57;;;18.50;;
8596;SDS011;4336;49.310;8.646;2024-01-16T09:38:46;23.10;;;17.03;;
8596;SDS011;4336;49.310;8.646;2024-01-16T09:41:13;25.13;;;18.50;;
8596;SDS011;4336;49.310;8.646;2024-01-16T09:43:39;25.73;;;18.93;;
8596;SDS011;4336;49.310;8.646;2024-01-16T09:46:05;29.00;;;16.90;;
8596;SDS011;4336;49.310;8.646;2024-01-16T09:48:33;25.97;;;19.37;;
8596;SDS011;4336;49.310;8.646;2024-01-16T09:50:59;28.33;;;19.57;;
8596;SDS011;4336;49.310;8.646;2024-01-16T09:53:25;25.27;;;19.10;;
8596;SDS011;4336;49.310;8.646;2024-01-16T09:55:51;23.03;;;17.70;;
8596;SDS011;4336;49.310;8.646;2024-01-16T09:58:20;24.70;;;18.80;;
8596;SDS011;4336;49.310;8.646;2024-01-16T10:00:46;28.67;;;19.47;;
8596;SDS011;4336;49.310;8.646;2024-01-16T10:03:13;25.83;;;18.93;;
8596;SDS011;4336;49.310;8.646;2024-01-16T10:05:43;25.37;;;17.03;;
8596;SDS011;4336;49.310;8.646;2024-01-16T10:08:10;27.13;;;18.13;;
8596;SDS011;4336;49.310;8.646;2024-01-16T10:10:36;26.67;;;19.97;;
8596;SDS011;4336;49.310;8.646;2024-01-16T10:13:02;31.83;;;20.80;;
8596;SDS011;4336;49.310;8.646;2024-01-16T10:15:29;28.60;;;17.90;;
8596;SDS011;4336;49.310;8.646;2024-01-16T10:17:57;24.93;;;19.03;;
8596;SDS011;4336;49.310;8.646;2024-01-16T10:20:34;24.77;;;18.57;;
8596;SDS011;4336;49.310;8.646;2024-01-16T10:23:01;24.57;;;18.70;;
8596;SDS011;4336;49.310;8.646;2024-01-16T10:25:28;26.57;;;19.13;;
8596;SDS011;4336;49.310;8.646;2024-01-16T10:28:04;26.93;;;19.17;;
8596;SDS011;4336;49.310;8.646;2024-01-16T10:30:32;35.33;;;19.10;;
8596;SDS011;4336;49.310;8.646;2024-01-16T10:33:11;24.90;;;18.57;;
8596;SDS011;4336;49.310;8.646;2024-01-16T10:35:38;28.50;;;18.67;;
8596;SDS011;4336;49.310;8.646;2024-01-16T10:38:05;26.60;;;16.73;;
8596;SDS011;4336;49.310;8.646;2024-01-16T10:40:31;29.87;;;18.13;;
8596;SDS011;4336;49.310;8.646;2024-01-16T10:43:02;27.70;;;18.50;;
8596;SDS011;4336;49.310;8.646;2024-01-16T10:45:29;24.70;;;17.83;;
8596;SDS011;4336;49.310;8.646;2024-01-16T10:50:28;28.47;;;18.37;;
8596;SDS011;4336;49.310;8.646;2024-01-16T10:52:54;26.43;;;18.17;;
8596;SDS011;4336;49.310;8.646;2024-01-16T10:55:22;25.13;;;18.47;;
8596;SDS011;4336;49.310;8.646;2024-01-16T10:57:49;26.60;;;18.40;;
8596;SDS011;4336;49.310;8.646;2024-01-16T11:00:19;25.27;;;17.73;;
8596;SDS011;4336;49.310;8.646;2024-01-16T11:02:53;30.20;;;19.37;;
8596;SDS011;4336;49.310;8.646;2024-01-16T11:05:20;28.07;;;18.80;;
8596;SDS011;4336;49.310;8.646;2024-01-16T11:07:50;32.70;;;21.57;;
8596;SDS011;4336;49.310;8.646;2024-01-16T11:10:16;30.40;;;19.77;;
8596;SDS011;4336;49.310;8.646;2024-01-16T11:12:43;24.37;;;18.47;;
8596;SDS011;4336;49.310;8.646;2024-01-16T11:15:10;26.17;;;19.00;;
8596;SDS011;4336;49.310;8.646;2024-01-16T11:17:38;27.43;;;18.47;;
8596;SDS011;4336;49.310;8.646;2024-01-16T11:20:05;29.30;;;17.80;;
8596;SDS011;4336;49.310;8.646;2024-01-16T11:22:36;29.67;;;20.27;;
8596;SDS011;4336;49.310;8.646;2024-01-16T11:25:07;27.80;;;19.37;;
8596;SDS011;4336;49.310;8.646;2024-01-16T11:27:35;25.87;;;18.70;;
8596;SDS011;4336;49.310;8.646;2024-01-16T11:30:01;24.50;;;18.57;;
8596;SDS011;4336;49.310;8.646;2024-01-16T11:32:40;33.40;;;21.87;;
8596;SDS011;4336;49.310;8.646;2024-01-16T11:35:07;27.40;;;20.07;;
8596;SDS011;4336;49.310;8.646;2024-01-16T11:37:33;25.30;;;19.70;;
8596;SDS011;4336;49.310;8.646;2024-01-16T11:40:22;23.23;;;17.70;;
8596;SDS011;4336;49.310;8.646;2024-01-16T11:42:48;24.33;;;17.43;;
8596;SDS011;4336;49.310;8.646;2024-01-16T11:48:15;26.87;;;17.83;;
8596;SDS011;4336;49.310;8.646;2024-01-16T11:50:42;25.63;;;17.57;;
8596;SDS011;4336;49.310;8.646;2024-01-16T11:53:08;21.70;;;16.50;;
8596;SDS011;4336;49.310;8.646;2024-01-16T11:55:35;24.63;;;17.80;;
8596;SDS011;4336;49.310;8.646;2024-01-16T11:58:08;29.93;;;22.07;;
8596;SDS011;4336;49.310;8.646;2024-01-16T12:00:40;26.67;;;20.27;;
8596;SDS011;4336;49.310;8.646;2024-01-16T12:03:11;25.47;;;16.57;;
8596;SDS011;4336;49.310;8.646;2024-01-16T12:05:41;23.67;;;17.67;;
8596;SDS011;4336;49.310;8.646;2024-01-16T12:08:09;24.73;;;16.83;;
8596;SDS011;4336;49.310;8.646;2024-01-16T12:10:45;22.60;;;16.33;;
8596;SDS011;4336;49.310;8.646;2024-01-16T12:13:15;22.93;;;16.27;;
8596;SDS011;4336;49.310;8.646;2024-01-16T12:15:42;23.07;;;16.73;;
8596;SDS011;4336;49.310;8.646;2024-01-16T12:18:08;24.83;;;16.40;;
8596;SDS011;4336;49.310;8.646;2024-01-16T12:20:38;22.77;;;17.53;;
8596;SDS011;4336;49.310;8.646;2024-01-16T12:23:04;23.37;;;16.57;;
8596;SDS011;4336;49.310;8.646;2024-01-16T12:25:32;21.10;;;15.87;;
8596;SDS011;4336;49.310;8.646;2024-01-16T12:27:59;23.37;;;16.40;;
8596;SDS011;4336;49.310;8.646;2024-01-16T12:30:29;23.53;;;16.83;;
8596;SDS011;4336;49.310;8.646;2024-01-16T12:33:06;20.27;;;16.00;;
8596;SDS011;4336;49.310;8.646;2024-01-16T12:35:35;19.57;;;14.83;;
8596;SDS011;4336;49.310;8.646;2024-01-16T12:38:02;20.03;;;15.77;;
8596;SDS011;4336;49.310;8.646;2024-01-16T12:40:30;18.83;;;15.07;;
8596;SDS011;4336;49.310;8.646;2024-01-16T12:42:56;21.43;;;15.70;;
8596;SDS011;4336;49.310;8.646;2024-01-16T12:45:22;24.73;;;17.00;;
8596;SDS011;4336;49.310;8.646;2024-01-16T12:47:50;20.20;;;15.37;;
8596;SDS011;4336;49.310;8.646;2024-01-16T12:50:24;22.20;;;16.53;;
8596;SDS011;4336;49.310;8.646;2024-01-16T12:53:01;21.37;;;16.47;;
8596;SDS011;4336;49.310;8.646;2024-01-16T12:55:28;22.43;;;15.07;;
8596;SDS011;4336;49.310;8.646;2024-01-16T13:00:39;20.43;;;15.07;;
8596;SDS011;4336;49.310;8.646;2024-01-16T13:03:05;19.73;;;14.23;;
8596;SDS011;4336;49.310;8.646;2024-01-16T13:05:31;20.67;;;14.80;;
8596;SDS011;4336;49.310;8.646;2024-01-16T13:08:01;16.53;;;13.03;;
8596;SDS011;4336;49.310;8.646;2024-01-16T13:10:31;15.50;;;12.33;;
8596;SDS011;4336;49.310;8.646;2024-01-16T13:13:16;19.03;;;12.83;;
8596;SDS011;4336;49.310;8.646;2024-01-16T13:15:46;15.33;;;12.10;;
8596;SDS011;4336;49.310;8.646;2024-01-16T13:18:19;18.67;;;14.47;;
8596;SDS011;4336;49.310;8.646;2024-01-16T13:20:47;21.40;;;14.20;;
8596;SDS011;4336;49.310;8.646;2024-01-16T13:23:14;16.67;;;12.40;;
8596;SDS011;4336;49.310;8.646;2024-01-16T13:25:41;20.73;;;13.53;;
8596;SDS011;4336;49.310;8.646;2024-01-16T13:28:08;17.13;;;12.87;;
8596;SDS011;4336;49.310;8.646;2024-01-16T13:30:34;18.40;;;13.70;;
8596;SDS011;4336;49.310;8.646;2024-01-16T13:33:00;21.63;;;14.13;;
8596;SDS011;4336;49.310;8.646;2024-01-16T13:35:27;15.90;;;12.40;;
8596;SDS011;4336;49.310;8.646;2024-01-16T13:37:54;20.60;;;14.23;;
8596;SDS011;4336;49.310;8.646;2024-01-16T13:40:20;17.23;;;14.57;;
8596;SDS011;4336;49.310;8.646;2024-01-16T13:42:48;18.33;;;14.07;;
8596;SDS011;4336;49.310;8.646;2024-01-16T13:45:14;19.33;;;16.10;;
8596;SDS011;4336;49.310;8.646;2024-01-16T13:47:42;24.03;;;15.87;;
8596;SDS011;4336;49.310;8.646;2024-01-16T13:50:08;17.57;;;13.53;;
8596;SDS011;4336;49.310;8.646;2024-01-16T13:52:35;21.40;;;15.67;;
8596;SDS011;4336;49.310;8.646;2024-01-16T13:55:01;17.13;;;14.37;;
8596;SDS011;4336;49.310;8.646;2024-01-16T13:57:28;22.70;;;13.30;;
8596;SDS011;4336;49.310;8.646;2024-01-16T13:59:55;18.20;;;14.97;;
8596;SDS011;4336;49.310;8.646;2024-01-16T14:02:21;20.10;;;14.63;;
8596;SDS011;4336;49.310;8.646;2024-01-16T14:04:47;17.33;;;13.70;;
8596;SDS011;4336;49.310;8.646;2024-01-16T14:07:13;19.23;;;16.03;;
8596;SDS011;4336;49.310;8.646;2024-01-16T14:09:40;19.50;;;15.70;;
8596;SDS011;4336;49.310;8.646;2024-01-16T14:12:07;20.90;;;14.67;;
8596;SDS011;4336;49.310;8.646;2024-01-16T14:14:33;17.93;;;16.03;;
8596;SDS011;4336;49.310;8.646;2024-01-16T14:16:59;18.77;;;14.03;;
8596;SDS011;4336;49.310;8.646;2024-01-16T14:19:26;16.83;;;12.50;;
8596;SDS011;4336;49.310;8.646;2024-01-16T14:21:53;16.87;;;13.17;;
8596;SDS011;4336;49.310;8.646;2024-01-16T14:24:19;16.63;;;13.40;;
8596;SDS011;4336;49.310;8.646;2024-01-16T14:26:46;24.30;;;14.10;;
8596;SDS011;4336;49.310;8.646;2024-01-16T14:29:12;21.20;;;15.50;;
8596;SDS011;4336;49.310;8.646;2024-01-16T14:31:39;17.67;;;14.10;;
8596;SDS011;4336;49.310;8.646;2024-01-16T14:34:11;23.77;;;14.60;;
8596;SDS011;4336;49.310;8.646;2024-01-16T14:36:40;19.63;;;14.10;;
8596;SDS011;4336;49.310;8.646;2024-01-16T14:39:07;17.27;;;12.47;;
8596;SDS011;4336;49.310;8.646;2024-01-16T14:41:41;20.90;;;14.13;;
8596;SDS011;4336;49.310;8.646;2024-01-16T14:44:08;23.03;;;14.43;;
8596;SDS011;4336;49.310;8.646;2024-01-16T14:46:35;17.27;;;14.20;;
8596;SDS011;4336;49.310;8.646;2024-01-16T14:49:01;18.90;;;14.27;;
8596;SDS011;4336;49.310;8.646;2024-01-16T14:51:27;20.93;;;14.20;;
8596;SDS011;4336;49.310;8.646;2024-01-16T14:53:54;17.60;;;14.20;;